עמוד ראשי
METAR-TAF:

METAR-TAF

שדות תעופה :

Masset, קולומביה הבריטית, קנדה

קו רוחב: 54-01-38N, קו אורך: 132-07-30W, גובה: 6מטר

תצפית מזג אוויר נוכחית

הדו"ח נערך לפני 11 שעות ו 17דקות, בשעה 00:00 UTC
רוח 8קשר מכיוון מזרח/דרום-מזרח עם משבים עד 17קשר , משתנה בין מזרח ו דרום/דרום-מזרח
טמפרטורת 17 צלסיוס
לחות 63%
לחץ 1012 hPa
ראות: 24.1קילומטר
עננים פזורים בגובה 2200רגל
עננים פזורים בגובה 3000רגל

METAR: CZMT 240000Z 12008G17KT 080V150 15SM SCT022 SCT030 17/10 A2987 RMK CU3SC1 TCU TOP N LAST STFD OBS/NXT 241300Z SLP117 DENSITY ALT 300FT

זמן: 04:17 (11:17 UTC)

תחזית

הדו"ח נערך לפני 16 שעות ו 37דקות, בשעה 18:40 UTC
תחזית בתוקף מ 23 ב 19 UTC עד 23 ב 24 UTC
רוח 8קשר מכיוון דרום/דרום-מזרח
ראות: 10קילומטר
עננים פזורים בגובה 2000רגל
עננים בינוניים בגובה 7000רגל
זמנית מ -
23 ב 19 UTC עד 23 ב 24 UTC
ראות: 8.0קילומטר
עננים בינוניים בגובה 2000רגל
מעונן בגובה 7000רגל
ממטרי גשם קלים, אד

TAF: CZMT 231840Z 2319/2324 16008KT P6SM SCT020 BKN070 TEMPO 2319/2324 5SM -SHRA BR BKN020 OVC070 RMK NXT FCST BY 241400Z

תצפיות ותחזיות מזג אוויר לגבי יותר מ- 4,000 שדות תעופה ברחבי העולם. דוחות METAR ו- TAF.

התחנות הזמינות מסומנות בנקודות צהובות ואדומות על גבי המפה.

העבר את העכבר לנקודה הצבעונית על מנת לראות את שם התחנה.

לאחר מכן, לחץ כדי לראות את תוכן ואת תחזיות מזג האוויר.

כדי לשנות את המפה: לחץ על הכפתורים הירוקים עם הפלוס השחור כדי להתקרב; על הכפתור הירוק עם המקף כדי להתרחק; או בחיצים הירוקים למפות סמוכות.


METAR-TAF: